Hartford, IA (50118)

12:47 AM CDT on May 05, 2015 (GMT -0500)
Carlisle | | Change Station
CLOSE
Current Station
Personal Weather Station
Location: Carlisle, IA
Elevation: 781 ft
Nearby Weather Stations

Elev 781 ft 41.48 °N, 93.49 °W | Updated 8 seconds ago

Overcast
Overcast
63.3 °F
Feels Like 63.3 °F
N
2.9
Wind Variable Wind from ENE
Gusts 4.9 mph

Today
High -- | Low -- °F
--% Chance of Precip.
Yesterday
High -- | Low -- °F
Precip. -- in
6:05 AM 8:15 PM
Full, 99% visible
Pressure 30.08 in
Visibility 6.0 miles
Clouds Few 700 ft
Mostly Cloudy 2700 ft
Overcast 9500 ft
Dew Point 62 °F
Humidity 96%
Rainfall 0.00 in
Snow Depth Not available.
UV 0.0 out of 12
Pollen 2.20 out of 12
Air Quality Not available.
Flu Activity Local Activity
SPECI KDSM 050416Z 08008KT 6SM -RA BR FEW007 BKN027 OVC095 18/16 A3008 RMK AO2 RAB07 P0000 T01780161

More Conditions Fewer Conditions

Pressure 30.08 in
Visibility 6.0 miles
Clouds Few 700 ft
Mostly Cloudy 2700 ft
Overcast 9500 ft
Dew Point 62 °F
Humidity 96%
Rainfall 0.00 in
Snow Depth Not available.
UV 0.0 out of 12
Pollen 2.20 out of 12
Air Quality Not available.
Flu Activity Local Activity
SPECI KDSM 050416Z 08008KT 6SM -RA BR FEW007 BKN027 OVC095 18/16 A3008 RMK AO2 RAB07 P0000 T01780161

More Conditions Fewer Conditions

Nepal has a long way to go to dig out and rebuild from a devastating earthquake. We have teamed up with several charities and organizations to make contributing to the relief effort as easy as possible.
How you can help: Portlight Strategies | Red Cross

10-Day Weather Forecast

Almanac

Astronomy

May. 05, 2015 Rise Set
Actual Time
Civil Twilight
Nautical Twilight
Astronomical Twilight
Moon
Length of Visible Light
Length of Day
Tomorrow will be .
, % of the Moon is Illuminated

Today's Extremes

State Highs State Lows

Community

WunderPhotos

Upload Photos

1,818,814 photos uploaded!

WunderBlogs® & News

Nearby

Air Quality

  Air Quality AQ Index Pollutant
Not available.

Snow Depth

Station Depth Elevation

Earthquake Activity

City Distance Mag. Time & Date
Minimum magnitude displayed is 2.5.

Coastal Water Temperatures

Place Temperature

Stations

Nearby Weather Stations

Station Location Temp. Windchill Dew Point Humidity Wind Precip. Elev Updated Type